Time;durP1;ratioP1;P1;durP2;ratioP2;P2;SDS_P1;SDS_P2;PMS_P1;PMS_P2;Temp;Humidity;BMP_temperature;BMP_pressure;BME280_temperature;BME280_humidity;BME280_pressure;Samples;Min_cycle;Max_cycle;Signal;HPM_P1;HPM_P2
2021/11/30 00:01:28;;;;;;;1.13;1.13;;;;;;;2.56;89.25;96008.94;5095990;28;20574;-67
2021/11/30 00:03:55;;;;;;;0.77;0.77;;;;;;;2.19;90.67;96020.09;5096189;28;20219;-69
2021/11/30 00:06:21;;;;;;;2.20;1.67;;;;;;;2.31;90.11;96020.81;5096254;28;20227;-69
2021/11/30 00:08:50;;;;;;;5.60;1.33;;;;;;;2.21;90.66;96031.16;5096124;28;20203;-66
2021/11/30 00:11:17;;;;;;;1.47;1.37;;;;;;;2.52;90.01;96022.34;5096331;28;20211;-68
2021/11/30 00:13:44;;;;;;;1.17;0.83;;;;;;;2.23;91.60;96029.25;5095651;28;20579;-69
2021/11/30 00:16:11;;;;;;;0.60;0.60;;;;;;;2.26;91.11;96028.19;5096649;28;20195;-68
2021/11/30 00:18:37;;;;;;;0.67;0.67;;;;;;;2.29;90.40;96030.50;5096564;28;20195;-68
2021/11/30 00:21:06;;;;;;;0.80;0.80;;;;;;;2.52;91.25;96024.94;5100194;27;20753;-67
2021/11/30 00:23:33;;;;;;;1.43;1.13;;;;;;;2.05;91.65;96038.63;5099174;28;20200;-68
2021/11/30 00:26:00;;;;;;;1.40;1.30;;;;;;;2.46;90.75;96031.50;5099096;28;20223;-69
2021/11/30 00:28:27;;;;;;;2.50;1.57;;;;;;;2.54;91.71;96036.84;5100011;28;20202;-69
2021/11/30 00:30:54;;;;;;;0.93;0.87;;;;;;;2.20;91.28;96039.94;5099647;28;20221;-69
2021/11/30 00:33:21;;;;;;;2.93;1.80;;;;;;;2.16;92.00;96042.91;5098916;28;20203;-66
2021/11/30 00:35:47;;;;;;;0.40;0.40;;;;;;;2.24;92.17;96045.66;5099438;28;20207;-67
2021/11/30 00:38:14;;;;;;;2.60;1.63;;;;;;;2.53;90.64;96042.19;5099358;28;20210;-66
2021/11/30 00:40:41;;;;;;;0.83;0.83;;;;;;;2.36;90.71;96042.03;5099168;28;21241;-69
2021/11/30 00:43:08;;;;;;;0.67;0.53;;;;;;;2.30;91.51;96045.16;5098837;28;20210;-66
2021/11/30 00:45:39;;;;;;;3.10;1.03;;;;;;;2.53;91.01;96048.25;5099504;28;20223;-69
2021/11/30 00:48:09;;;;;;;1.07;0.97;;;;;;;2.34;90.68;96052.53;5099333;28;20289;-67
2021/11/30 00:50:39;;;;;;;1.23;1.13;;;;;;;2.55;90.95;96048.09;5099204;28;20209;-67
2021/11/30 00:53:06;;;;;;;1.77;1.00;;;;;;;2.56;89.88;96053.16;5098790;28;20432;-67
2021/11/30 00:55:33;;;;;;;1.83;1.60;;;;;;;2.41;90.34;96056.28;5098954;28;20249;-67
2021/11/30 00:57:59;;;;;;;2.60;1.30;;;;;;;2.13;91.50;96051.78;5096762;28;20213;-69
2021/11/30 01:00:26;;;;;;;1.20;1.13;;;;;;;2.34;90.83;96062.13;5099287;28;20281;-69
2021/11/30 01:02:54;;;;;;;1.97;1.57;;;;;;;2.40;92.40;96066.81;5097893;28;20207;-67
2021/11/30 01:05:20;;;;;;;2.37;2.20;;;;;;;2.30;92.33;96066.75;5098200;28;20754;-66
2021/11/30 01:07:47;;;;;;;0.80;0.80;;;;;;;2.44;91.52;96063.78;5099883;28;20214;-69
2021/11/30 01:10:16;;;;;;;5.03;1.20;;;;;;;2.63;92.11;96063.84;5098690;28;20203;-66
2021/11/30 01:12:43;;;;;;;0.87;0.87;;;;;;;2.40;92.61;96071.03;5097883;28;20199;-69
2021/11/30 01:15:13;;;;;;;1.43;0.60;;;;;;;2.59;93.64;96071.09;5098849;28;20223;-66
2021/11/30 01:17:40;;;;;;;1.10;0.80;;;;;;;2.14;95.59;96073.38;5099459;28;20203;-68
2021/11/30 01:20:10;;;;;;;3.80;1.87;;;;;;;2.70;95.21;96071.00;5098465;28;20211;-69
2021/11/30 01:22:38;;;;;;;0.50;0.50;;;;;;;2.33;96.10;96086.47;5098006;28;20671;-69
2021/11/30 01:25:05;;;;;;;0.97;0.97;;;;;;;2.22;96.62;96079.59;5098203;28;20238;-69
2021/11/30 01:27:32;;;;;;;2.43;1.40;;;;;;;2.13;96.78;96082.16;5098371;28;20203;-69
2021/11/30 01:29:59;;;;;;;0.80;0.77;;;;;;;2.13;96.60;96082.97;5098626;28;20230;-69
2021/11/30 01:32:25;;;;;;;1.27;1.17;;;;;;;1.94;96.75;96089.84;5097833;28;20195;-69
2021/11/30 01:34:52;;;;;;;1.10;0.90;;;;;;;2.18;95.80;96088.59;5097962;28;21029;-69
2021/11/30 01:37:20;;;;;;;1.77;1.10;;;;;;;2.31;96.69;96091.00;5098768;27;20569;-69
2021/11/30 01:39:48;;;;;;;1.93;1.40;;;;;;;2.17;96.35;96089.56;5098670;28;20690;-69
2021/11/30 01:42:15;;;;;;;0.70;0.70;;;;;;;2.39;95.31;96088.56;5097902;27;20202;-69
2021/11/30 01:44:48;;;;;;;6.67;2.73;;;;;;;2.15;95.94;96098.44;5097672;28;20219;-69
2021/11/30 01:47:35;;;;;;;0.80;0.73;;;;;;;2.51;95.21;96094.34;5097945;28;20223;-69
2021/11/30 01:50:03;;;;;;;1.67;0.73;;;;;;;2.37;94.89;96087.84;5098539;28;20203;-69
2021/11/30 01:52:32;;;;;;;1.17;0.97;;;;;;;2.71;94.00;96075.25;5097641;28;20192;-69
2021/11/30 01:54:59;;;;;;;1.33;1.23;;;;;;;2.49;93.38;96091.03;5097815;28;20229;-69
2021/11/30 01:57:27;;;;;;;1.37;1.10;;;;;;;2.57;93.60;96088.63;5094929;28;20202;-69
2021/11/30 01:59:55;;;;;;;1.20;0.80;;;;;;;2.61;93.34;96099.56;5097769;28;20660;-69
2021/11/30 02:02:22;;;;;;;1.03;0.97;;;;;;;2.67;92.96;96102.47;5097375;28;20315;-69
2021/11/30 02:04:50;;;;;;;1.37;1.13;;;;;;;2.44;94.28;96103.63;5097866;28;20228;-69
2021/11/30 02:07:17;;;;;;;0.97;0.90;;;;;;;2.48;93.32;96097.22;5097406;28;20215;-69
2021/11/30 02:09:45;;;;;;;1.03;0.93;;;;;;;2.74;93.28;96093.19;5097625;28;20210;-69
2021/11/30 02:12:12;;;;;;;1.87;0.60;;;;;;;2.59;93.37;96094.50;5097516;27;20332;-69
2021/11/30 02:14:41;;;;;;;4.00;1.07;;;;;;;2.60;93.19;96090.94;5098181;28;20219;-69
2021/11/30 02:17:08;;;;;;;0.80;0.80;;;;;;;2.54;94.19;96096.66;5097500;28;20244;-69
2021/11/30 02:19:41;;;;;;;1.20;1.10;;;;;;;2.63;93.93;96101.06;5097270;28;20218;-69
2021/11/30 02:22:11;;;;;;;1.57;1.47;;;;;;;2.65;94.49;96104.38;5098370;28;20207;-69
2021/11/30 02:24:38;;;;;;;3.33;1.80;;;;;;;2.63;93.18;96105.47;5097003;28;20223;-69
2021/11/30 02:27:04;;;;;;;1.80;1.07;;;;;;;2.53;93.84;96102.84;5096718;28;20215;-69
2021/11/30 02:29:31;;;;;;;0.63;0.63;;;;;;;2.47;93.73;96095.56;5097665;28;20206;-69
2021/11/30 02:31:57;;;;;;;1.53;0.87;;;;;;;2.55;93.85;96103.53;5097458;28;20214;-69
2021/11/30 02:34:24;;;;;;;0.40;0.40;;;;;;;2.54;94.14;96096.66;5096181;28;20219;-69
2021/11/30 02:36:52;;;;;;;1.60;1.40;;;;;;;2.68;93.37;96101.50;5097362;28;21013;-70
2021/11/30 02:39:22;;;;;;;1.03;0.97;;;;;;;2.85;94.34;96092.25;5097247;28;20922;-69
2021/11/30 02:41:51;;;;;;;0.43;0.43;;;;;;;2.61;95.07;96097.81;5096851;28;20197;-69
2021/11/30 02:44:20;;;;;;;2.20;1.27;;;;;;;2.58;96.07;96099.84;5096789;28;20231;-69
2021/11/30 02:46:49;;;;;;;1.80;1.17;;;;;;;2.64;94.88;96101.91;5096779;28;20295;-69
2021/11/30 02:49:18;;;;;;;1.00;0.87;;;;;;;2.69;95.00;96097.16;5097102;28;20593;-69
2021/11/30 02:51:48;;;;;;;0.80;0.80;;;;;;;2.73;94.46;96091.53;5097178;28;20203;-69
2021/11/30 02:54:17;;;;;;;1.37;1.27;;;;;;;2.75;93.80;96089.63;5096101;28;20237;-69
2021/11/30 02:56:47;;;;;;;0.33;0.33;;;;;;;2.65;93.93;96093.16;5093702;28;20788;-69
2021/11/30 02:59:14;;;;;;;0.60;0.60;;;;;;;2.63;93.18;96093.28;5097059;28;21069;-69
2021/11/30 03:01:42;;;;;;;1.27;0.67;;;;;;;2.67;92.90;96101.63;5097126;28;20581;-69
2021/11/30 03:04:13;;;;;;;4.00;1.03;;;;;;;3.11;91.57;96096.81;5095872;28;20222;-69
2021/11/30 03:06:40;;;;;;;0.60;0.60;;;;;;;2.62;92.29;96099.47;5097332;28;20222;-69
2021/11/30 03:09:07;;;;;;;1.07;0.83;;;;;;;2.39;92.08;96107.56;5097291;28;20199;-69
2021/11/30 03:11:33;;;;;;;0.60;0.60;;;;;;;2.41;92.00;96096.09;5096918;28;20214;-69
2021/11/30 03:14:01;;;;;;;0.87;0.60;;;;;;;2.77;91.44;96095.50;5095979;28;20223;-69
2021/11/30 03:16:28;;;;;;;1.27;0.80;;;;;;;2.45;91.35;96107.06;5097294;28;20197;-69
2021/11/30 03:18:55;;;;;;;0.83;0.83;;;;;;;2.62;90.65;96109.00;5096336;28;20199;-69
2021/11/30 03:21:21;;;;;;;0.93;0.83;;;;;;;2.40;91.04;96105.81;5097297;28;20199;-70
2021/11/30 03:23:47;;;;;;;0.40;0.40;;;;;;;2.53;90.52;96105.44;5095953;28;20237;-70
2021/11/30 03:26:15;;;;;;;1.37;0.93;;;;;;;2.56;90.37;96102.56;5097326;28;21034;-70
2021/11/30 03:28:43;;;;;;;2.63;0.73;;;;;;;2.48;90.25;96106.78;5097219;28;20203;-71
2021/11/30 03:31:21;;;;;;;0.43;0.43;;;;;;;2.89;89.84;96111.81;5097557;28;20303;-69
2021/11/30 03:33:59;;;;;;;1.53;0.63;;;;;;;2.67;88.62;96112.88;5095746;28;20230;-69
2021/11/30 03:36:26;;;;;;;3.20;1.87;;;;;;;2.91;89.13;96109.94;5096546;28;20623;-69
2021/11/30 03:38:53;;;;;;;0.70;0.57;;;;;;;2.86;88.44;96117.31;5097503;28;20858;-69
2021/11/30 03:41:19;;;;;;;1.23;1.00;;;;;;;2.78;88.34;96128.38;5097232;28;20198;-69
2021/11/30 03:43:46;;;;;;;0.83;0.83;;;;;;;2.80;88.36;96115.22;5095454;28;20555;-69
2021/11/30 03:46:14;;;;;;;0.67;0.67;;;;;;;3.27;87.33;96117.91;5097122;28;20215;-69
2021/11/30 03:48:40;;;;;;;0.70;0.67;;;;;;;2.81;87.90;96114.28;5097313;28;20200;-70
2021/11/30 03:51:07;;;;;;;0.70;0.70;;;;;;;3.01;87.63;96114.19;5092771;28;20203;-69
2021/11/30 03:53:33;;;;;;;0.83;0.70;;;;;;;2.76;88.32;96117.28;5095959;28;20205;-69
2021/11/30 03:56:00;;;;;;;0.97;0.97;;;;;;;2.83;88.00;96117.59;5100704;28;20231;-70
2021/11/30 03:58:26;;;;;;;0.57;0.57;;;;;;;2.99;87.56;96118.69;5097399;28;20210;-69
2021/11/30 04:00:53;;;;;;;0.53;0.53;;;;;;;2.82;87.69;96111.53;5099895;28;20212;-69
2021/11/30 04:03:22;;;;;;;1.20;1.03;;;;;;;3.14;87.18;96115.59;5099994;28;20215;-69
2021/11/30 04:05:49;;;;;;;0.70;0.70;;;;;;;2.87;87.34;96109.38;5100143;28;20229;-69
2021/11/30 04:08:16;;;;;;;0.57;0.57;;;;;;;2.69;87.77;96110.97;5099943;28;20195;-69
2021/11/30 04:10:42;;;;;;;0.43;0.43;;;;;;;2.73;87.44;96112.34;5100029;28;20202;-69
2021/11/30 04:13:09;;;;;;;0.90;0.90;;;;;;;2.75;87.20;96113.03;5099283;28;20207;-69
2021/11/30 04:15:36;;;;;;;0.67;0.67;;;;;;;2.81;87.58;96109.88;5099661;28;20309;-69
2021/11/30 04:18:02;;;;;;;0.50;0.50;;;;;;;2.73;88.04;96114.94;5098551;28;20203;-69
2021/11/30 04:20:30;;;;;;;0.70;0.70;;;;;;;2.99;87.37;96100.47;5100139;28;20199;-69
2021/11/30 04:22:57;;;;;;;0.70;0.70;;;;;;;2.73;87.40;96111.53;5099134;28;20199;-69
2021/11/30 04:25:23;;;;;;;0.67;0.60;;;;;;;2.42;87.56;96102.94;5100023;28;20226;-69
2021/11/30 04:27:50;;;;;;;0.87;0.70;;;;;;;2.60;86.96;96105.75;5099443;28;20220;-69
2021/11/30 04:30:17;;;;;;;1.13;0.73;;;;;;;2.73;86.16;96111.53;5099905;28;20698;-70
2021/11/30 04:32:44;;;;;;;1.70;1.37;;;;;;;2.49;86.53;96114.44;5099011;28;20203;-69
2021/11/30 04:35:12;;;;;;;0.73;0.73;;;;;;;2.74;85.72;96103.59;5099578;28;20567;-69
2021/11/30 04:37:40;;;;;;;0.37;0.37;;;;;;;2.79;85.65;96100.56;5099321;28;20254;-69
2021/11/30 04:40:09;;;;;;;0.90;0.67;;;;;;;2.83;85.66;96108.00;5099450;28;21098;-69
2021/11/30 04:42:36;;;;;;;0.60;0.60;;;;;;;2.74;85.52;96095.78;5099325;28;20207;-69
2021/11/30 04:45:06;;;;;;;1.03;0.70;;;;;;;2.45;85.43;96086.25;5100008;28;20230;-68
2021/11/30 04:47:35;;;;;;;0.47;0.47;;;;;;;2.60;85.28;96088.34;5099164;28;20705;-69
2021/11/30 04:50:04;;;;;;;0.70;0.60;;;;;;;2.79;85.10;96092.75;5099355;28;20203;-69
2021/11/30 04:52:32;;;;;;;2.20;2.00;;;;;;;2.55;85.47;96100.13;5099544;28;20971;-69
2021/11/30 04:55:00;;;;;;;0.30;0.30;;;;;;;2.56;86.05;96094.78;5098625;28;20250;-69
2021/11/30 04:57:27;;;;;;;2.37;1.50;;;;;;;2.69;85.86;96084.13;5095749;28;21028;-69
2021/11/30 04:59:54;;;;;;;4.73;1.37;;;;;;;2.30;85.62;96104.94;5099764;28;20254;-69
2021/11/30 05:02:21;;;;;;;1.00;1.00;;;;;;;2.54;85.84;96101.88;5098579;28;20200;-69
2021/11/30 05:04:48;;;;;;;1.43;0.60;;;;;;;2.43;86.37;96094.19;5098098;28;20216;-68
2021/11/30 05:07:15;;;;;;;1.57;0.90;;;;;;;2.49;85.92;96088.44;5099094;28;20216;-66
2021/11/30 05:09:41;;;;;;;0.97;0.77;;;;;;;2.48;86.14;96084.22;5099307;28;20195;-68
2021/11/30 05:12:11;;;;;;;0.50;0.50;;;;;;;2.85;86.08;96084.44;5098823;27;20203;-66
2021/11/30 05:14:38;;;;;;;1.80;1.23;;;;;;;2.39;86.58;96089.38;5098385;28;21383;-69
2021/11/30 05:17:05;;;;;;;1.00;1.00;;;;;;;2.61;86.02;96090.00;5098759;28;20210;-67
2021/11/30 05:19:32;;;;;;;0.90;0.90;;;;;;;2.34;86.18;96078.53;5099119;28;20222;-67
2021/11/30 05:21:58;;;;;;;1.90;1.63;;;;;;;2.38;85.91;96086.91;5098300;28;20215;-66
2021/11/30 05:24:25;;;;;;;0.40;0.40;;;;;;;2.47;86.12;96090.38;5097974;28;20215;-68
2021/11/30 05:26:54;;;;;;;0.60;0.60;;;;;;;2.45;86.15;96097.47;5098966;28;20230;-69
2021/11/30 05:29:21;;;;;;;0.77;0.77;;;;;;;2.73;85.67;96086.31;5098607;28;20867;-69
2021/11/30 05:31:48;;;;;;;0.67;0.67;;;;;;;2.50;85.56;96087.50;5098241;28;20560;-68
2021/11/30 05:34:15;;;;;;;0.53;0.53;;;;;;;2.42;86.42;96087.34;5097950;28;20226;-68
2021/11/30 05:36:41;;;;;;;1.00;1.00;;;;;;;2.55;86.21;96087.91;5098869;28;20215;-66
2021/11/30 05:39:08;;;;;;;1.13;0.93;;;;;;;2.55;85.94;96081.91;5098012;28;20586;-66
2021/11/30 05:41:34;;;;;;;0.77;0.77;;;;;;;2.39;86.27;96091.16;5098406;28;20583;-69
2021/11/30 05:44:01;;;;;;;1.60;0.77;;;;;;;2.43;85.82;96090.75;5097136;28;20230;-68
2021/11/30 05:46:33;;;;;;;0.90;0.90;;;;;;;2.66;85.49;96080.03;5098442;28;20229;-69
2021/11/30 05:48:59;;;;;;;1.57;0.60;;;;;;;2.43;85.41;96082.94;5098344;28;20207;-68
2021/11/30 05:51:26;;;;;;;0.93;0.80;;;;;;;2.31;86.04;96075.41;5098424;28;20333;-70
2021/11/30 05:53:52;;;;;;;0.70;0.70;;;;;;;2.56;85.34;96062.75;5097278;28;20221;-68
2021/11/30 05:56:19;;;;;;;0.80;0.80;;;;;;;2.24;85.91;96071.66;5098062;28;20593;-68
2021/11/30 05:58:46;;;;;;;4.83;1.63;;;;;;;2.38;85.33;96066.09;5094849;28;20204;-68
2021/11/30 06:01:21;;;;;;;0.60;0.60;;;;;;;2.66;85.37;96064.41;5097835;28;20195;-66
2021/11/30 06:03:59;;;;;;;0.90;0.90;;;;;;;2.70;85.24;96065.78;5097270;28;20332;-68
2021/11/30 06:06:27;;;;;;;1.37;0.87;;;;;;;2.49;85.09;96064.22;5097754;28;20210;-65
2021/11/30 06:08:54;;;;;;;0.80;0.80;;;;;;;2.45;85.34;96062.84;5098647;28;20223;-68
2021/11/30 06:11:20;;;;;;;0.80;0.80;;;;;;;2.31;86.00;96058.00;5097850;28;20199;-68
2021/11/30 06:13:47;;;;;;;2.00;0.83;;;;;;;2.59;85.31;96055.47;5096986;28;20202;-68
2021/11/30 06:16:14;;;;;;;0.83;0.80;;;;;;;2.38;85.37;96061.75;5096870;28;20208;-67
2021/11/30 06:18:41;;;;;;;0.70;0.70;;;;;;;2.44;85.27;96058.59;5097784;28;20469;-69
2021/11/30 06:21:10;;;;;;;0.60;0.60;;;;;;;2.61;85.35;96048.38;5097471;28;20705;-69
2021/11/30 06:23:38;;;;;;;0.67;0.67;;;;;;;2.53;85.32;96056.03;5097052;28;20570;-68
2021/11/30 06:26:05;;;;;;;1.13;1.00;;;;;;;2.34;84.94;96046.53;5097334;28;20944;-68
2021/11/30 06:28:32;;;;;;;2.00;1.47;;;;;;;2.36;85.80;96057.63;5097446;28;20243;-68
2021/11/30 06:30:58;;;;;;;0.70;0.70;;;;;;;2.52;85.12;96046.59;5097259;28;20209;-68
2021/11/30 06:33:25;;;;;;;1.13;1.03;;;;;;;2.42;84.72;96040.53;5097003;28;20199;-68
2021/11/30 06:35:51;;;;;;;0.60;0.60;;;;;;;2.62;84.74;96041.41;5097176;28;20226;-70
2021/11/30 06:38:19;;;;;;;1.23;0.83;;;;;;;2.61;84.66;96035.38;5097423;28;20199;-70
2021/11/30 06:40:46;;;;;;;1.37;1.27;;;;;;;2.62;84.21;96031.00;5097863;28;20198;-68
2021/11/30 06:43:14;;;;;;;2.43;1.10;;;;;;;2.37;84.15;96041.06;5096738;28;20305;-70
2021/11/30 06:45:41;;;;;;;0.97;0.97;;;;;;;2.50;83.08;96045.88;5097160;28;21304;-68
2021/11/30 06:48:07;;;;;;;0.70;0.70;;;;;;;2.40;84.08;96040.81;5097759;28;20324;-71
2021/11/30 06:50:34;;;;;;;0.57;0.50;;;;;;;2.48;83.12;96033.97;5097480;28;20206;-71
2021/11/30 06:53:00;;;;;;;2.93;1.10;;;;;;;2.45;82.71;96034.25;5096262;28;20203;-69
2021/11/30 06:55:29;;;;;;;4.80;1.30;;;;;;;2.66;82.85;96028.00;5097126;28;20986;-70
2021/11/30 06:57:55;;;;;;;1.33;1.23;;;;;;;2.35;82.57;96038.59;5093456;28;20203;-74
2021/11/30 07:00:23;;;;;;;7.07;1.37;;;;;;;2.32;81.69;96022.44;5097039;28;20199;-69
2021/11/30 07:02:51;;;;;;;0.70;0.70;;;;;;;2.56;82.07;96031.53;5096563;28;20258;-71
2021/11/30 07:05:20;;;;;;;1.13;1.03;;;;;;;2.59;82.14;96020.88;5097586;28;20777;-68
2021/11/30 07:07:55;;;;;;;1.60;0.97;;;;;;;2.54;81.93;96018.66;5096881;28;20698;-68
2021/11/30 07:10:37;;;;;;;1.27;1.13;;;;;;;2.49;80.51;96009.63;5097393;28;20207;-71
2021/11/30 07:13:16;;;;;;;1.83;0.87;;;;;;;2.72;81.47;96017.03;5096374;28;20236;-69
2021/11/30 07:15:44;;;;;;;0.97;0.97;;;;;;;2.66;81.48;96009.78;5096892;28;20247;-70
2021/11/30 07:18:11;;;;;;;0.80;0.60;;;;;;;2.60;81.42;96007.72;5097260;28;20203;-74
2021/11/30 07:20:38;;;;;;;1.80;0.80;;;;;;;2.77;80.91;96009.66;5097474;28;20286;-73
2021/11/30 07:23:05;;;;;;;2.33;1.60;;;;;;;2.60;80.78;96002.53;5096447;28;20204;-69
2021/11/30 07:25:31;;;;;;;2.00;1.50;;;;;;;2.67;80.85;95993.25;5097032;28;20235;-70
2021/11/30 07:27:58;;;;;;;0.50;0.50;;;;;;;2.75;80.22;96002.94;5097771;28;20226;-68
2021/11/30 07:30:26;;;;;;;0.60;0.57;;;;;;;2.95;80.83;96002.81;5101177;28;20199;-70
2021/11/30 07:32:53;;;;;;;1.33;1.03;;;;;;;2.57;80.37;96004.56;5098422;28;20203;-69
2021/11/30 07:35:21;;;;;;;1.17;0.53;;;;;;;2.52;80.57;95999.78;5100300;28;20233;-69
2021/11/30 07:37:47;;;;;;;1.37;1.27;;;;;;;2.51;80.36;96003.31;5101512;28;20191;-68
2021/11/30 07:40:14;;;;;;;1.07;0.97;;;;;;;2.40;81.17;96006.03;5100623;28;20619;-69
2021/11/30 07:42:42;;;;;;;1.17;1.03;;;;;;;2.62;81.10;95991.97;5099898;28;20221;-73
2021/11/30 07:45:09;;;;;;;3.30;1.77;;;;;;;2.88;80.95;96016.50;5100886;28;20230;-71
2021/11/30 07:47:37;;;;;;;1.37;1.27;;;;;;;2.85;81.70;95986.41;5101073;28;20220;-68
2021/11/30 07:50:05;;;;;;;0.60;0.60;;;;;;;2.58;81.98;95994.06;5101175;28;20207;-69
2021/11/30 07:52:36;;;;;;;1.57;1.20;;;;;;;2.41;82.94;95996.47;5100733;28;20199;-69
2021/11/30 07:55:04;;;;;;;0.70;0.70;;;;;;;2.47;83.73;95986.34;5100369;27;20250;-68
2021/11/30 07:57:31;;;;;;;0.50;0.50;;;;;;;2.42;83.61;95993.72;5096626;28;20843;-72
2021/11/30 07:59:57;;;;;;;0.57;0.50;;;;;;;2.38;84.47;95975.09;5100691;27;20207;-68
2021/11/30 08:02:24;;;;;;;1.13;1.03;;;;;;;2.29;85.78;95981.94;5099156;28;20203;-68
2021/11/30 08:04:52;;;;;;;4.90;1.53;;;;;;;2.60;86.39;95986.09;5099891;28;20227;-70
2021/11/30 08:07:19;;;;;;;3.17;0.93;;;;;;;2.24;87.04;95978.09;5100430;28;20223;-70
2021/11/30 08:09:48;;;;;;;6.40;2.20;;;;;;;2.23;88.25;95977.28;5100495;28;20203;-73
2021/11/30 08:12:15;;;;;;;0.73;0.73;;;;;;;2.23;88.85;95973.84;5099273;28;20678;-73
2021/11/30 08:14:41;;;;;;;1.20;1.10;;;;;;;2.44;88.08;95976.22;5100405;28;20227;-73
2021/11/30 08:17:13;;;;;;;1.80;0.67;;;;;;;2.02;89.35;95965.31;5100424;28;20217;-70
2021/11/30 08:19:40;;;;;;;2.43;1.37;;;;;;;2.19;90.50;95972.47;5100563;28;20235;-70
2021/11/30 08:22:08;;;;;;;0.50;0.50;;;;;;;2.46;89.88;95960.50;5100048;28;20211;-69
2021/11/30 08:24:36;;;;;;;1.60;1.13;;;;;;;2.15;90.92;95945.94;5099358;28;20207;-75
2021/11/30 08:27:02;;;;;;;1.93;1.03;;;;;;;2.04;90.63;95950.44;5099835;28;20298;-70
2021/11/30 08:29:30;;;;;;;0.80;0.80;;;;;;;2.34;89.38;95932.94;5099796;28;20286;-68
2021/11/30 08:31:57;;;;;;;1.60;1.50;;;;;;;2.51;88.46;95925.31;5099621;27;20983;-68
2021/11/30 08:34:24;;;;;;;0.80;0.80;;;;;;;2.24;89.85;95916.53;5099181;28;20214;-72
2021/11/30 08:36:50;;;;;;;1.50;1.40;;;;;;;2.59;87.98;95922.03;5100003;28;20202;-69
2021/11/30 08:39:18;;;;;;;0.80;0.80;;;;;;;2.56;88.36;95928.34;5098594;28;20197;-69
2021/11/30 08:41:45;;;;;;;3.60;1.60;;;;;;;2.30;89.20;95915.19;5099497;28;20207;-69
2021/11/30 08:44:11;;;;;;;1.43;0.83;;;;;;;2.30;89.02;95907.38;5099697;27;20223;-69
2021/11/30 08:46:38;;;;;;;2.00;0.90;;;;;;;2.67;88.40;95904.81;5099206;28;20222;-69
2021/11/30 08:49:05;;;;;;;4.17;2.30;;;;;;;2.40;88.13;95903.00;5098556;27;20230;-69
2021/11/30 08:51:32;;;;;;;0.60;0.60;;;;;;;2.51;87.90;95927.09;5099755;28;20200;-69
2021/11/30 08:53:59;;;;;;;4.43;1.33;;;;;;;2.64;87.03;95909.44;5096413;28;20240;-69
2021/11/30 08:56:27;;;;;;;13.47;1.33;;;;;;;2.88;86.60;95908.06;5097658;28;20692;-69
2021/11/30 08:58:53;;;;;;;1.83;1.57;;;;;;;2.55;87.13;95916.28;5099641;28;20203;-69
2021/11/30 09:01:21;;;;;;;0.87;0.87;;;;;;;2.66;86.46;95887.53;5100184;28;20217;-69
2021/11/30 09:03:47;;;;;;;1.47;1.07;;;;;;;2.41;87.61;95910.66;5099605;28;20202;-69
2021/11/30 09:06:14;;;;;;;1.23;0.93;;;;;;;2.48;88.50;95920.41;5098355;28;20200;-69
2021/11/30 09:08:41;;;;;;;2.07;1.10;;;;;;;2.42;88.79;95915.72;5099376;28;20226;-69
2021/11/30 09:11:08;;;;;;;2.13;0.70;;;;;;;2.47;89.41;95890.16;5096069;28;20206;-69
2021/11/30 09:13:36;;;;;;;0.50;0.50;;;;;;;2.75;89.71;95884.13;5097281;28;20195;-69
2021/11/30 09:16:02;;;;;;;1.50;1.23;;;;;;;2.55;88.76;95895.47;5098439;28;20230;-69
2021/11/30 09:18:30;;;;;;;1.50;0.80;;;;;;;2.48;89.35;95904.81;5098610;28;20199;-70
2021/11/30 09:20:57;;;;;;;0.57;0.53;;;;;;;2.61;88.67;95915.75;5098390;28;20207;-69
2021/11/30 09:23:24;;;;;;;0.80;0.80;;;;;;;2.43;89.46;95888.78;5097941;28;20203;-69
2021/11/30 09:25:53;;;;;;;0.80;0.80;;;;;;;2.44;89.78;95908.63;5098054;28;20229;-69
2021/11/30 09:28:20;;;;;;;1.43;1.00;;;;;;;2.42;90.37;95887.13;5097733;28;20219;-69
2021/11/30 09:30:48;;;;;;;2.30;1.60;;;;;;;2.66;89.98;95884.09;5098516;28;20199;-69
2021/11/30 09:33:15;;;;;;;3.80;1.47;;;;;;;2.38;89.88;95886.72;5097247;28;20203;-70
2021/11/30 09:35:42;;;;;;;2.87;1.60;;;;;;;2.44;89.78;95882.63;5097955;28;20218;-69
2021/11/30 09:38:09;;;;;;;2.90;0.90;;;;;;;2.48;89.98;95914.34;5098068;28;20211;-70
2021/11/30 09:40:37;;;;;;;1.23;0.87;;;;;;;2.54;89.84;95877.41;5097998;28;20194;-70
2021/11/30 09:43:04;;;;;;;1.63;1.27;;;;;;;2.30;90.23;95878.78;5097347;28;20209;-70
2021/11/30 09:45:34;;;;;;;1.03;0.97;;;;;;;2.42;90.80;95866.34;5096777;28;20241;-70
2021/11/30 09:48:02;;;;;;;3.43;1.57;;;;;;;2.56;89.23;95850.31;5096743;28;20256;-70
2021/11/30 09:50:29;;;;;;;2.50;1.10;;;;;;;2.57;89.97;95866.72;5096933;28;21021;-70
2021/11/30 09:52:56;;;;;;;1.17;0.90;;;;;;;2.54;89.78;95860.03;5096152;28;20686;-70
2021/11/30 09:55:24;;;;;;;1.33;0.90;;;;;;;2.56;90.15;95865.91;5097276;27;20231;-70
2021/11/30 09:57:51;;;;;;;1.67;1.17;;;;;;;2.37;90.68;95839.13;5093334;28;20293;-70
2021/11/30 10:00:20;;;;;;;1.43;0.87;;;;;;;2.44;91.58;95841.03;5097191;28;21018;-69
2021/11/30 10:02:47;;;;;;;0.40;0.40;;;;;;;2.24;91.85;95832.53;5096886;28;20206;-70
2021/11/30 10:05:15;;;;;;;0.57;0.43;;;;;;;2.28;93.07;95859.88;5097417;27;20247;-70
2021/11/30 10:07:43;;;;;;;1.10;0.90;;;;;;;2.24;93.37;95856.75;5096702;28;20210;-70
2021/11/30 10:10:15;;;;;;;0.57;0.57;;;;;;;2.57;93.81;95856.31;5096601;28;20203;-70
2021/11/30 10:12:42;;;;;;;1.33;1.13;;;;;;;2.16;93.57;95855.78;5096158;28;20214;-70
2021/11/30 10:15:10;;;;;;;0.80;0.80;;;;;;;2.39;92.62;95852.78;5095995;28;20229;-69
2021/11/30 10:17:37;;;;;;;2.10;1.13;;;;;;;2.23;93.86;95846.47;5096898;28;20199;-70
2021/11/30 10:20:08;;;;;;;0.73;0.73;;;;;;;2.44;93.27;95838.44;5096303;28;20268;-70
2021/11/30 10:22:42;;;;;;;2.40;1.13;;;;;;;2.62;94.13;95849.78;5095679;28;20580;-70
2021/11/30 10:25:14;;;;;;;2.83;1.00;;;;;;;2.56;93.38;95839.91;5096009;28;20233;-70
2021/11/30 10:27:45;;;;;;;0.70;0.70;;;;;;;2.61;93.90;95834.28;5096210;28;20205;-70
2021/11/30 10:30:15;;;;;;;0.87;0.43;;;;;;;2.68;93.83;95836.19;5096588;28;20207;-70
2021/11/30 10:32:45;;;;;;;1.17;0.83;;;;;;;2.34;93.58;95838.56;5094586;28;20207;-70
2021/11/30 10:35:12;;;;;;;1.43;0.80;;;;;;;2.34;94.53;95830.75;5095799;28;20711;-70
2021/11/30 10:37:46;;;;;;;0.63;0.63;;;;;;;2.76;94.48;95817.28;5095737;28;20203;-70
2021/11/30 10:40:15;;;;;;;1.20;1.03;;;;;;;2.53;93.89;95815.97;5095098;28;20195;-70
2021/11/30 10:42:51;;;;;;;1.03;0.93;;;;;;;2.65;92.79;95812.28;5095646;28;20199;-69
2021/11/30 10:45:30;;;;;;;1.00;1.00;;;;;;;2.86;92.30;95821.50;5095773;28;20230;-70
2021/11/30 10:48:08;;;;;;;1.60;1.33;;;;;;;3.02;91.53;95799.13;5094748;28;21008;-70
2021/11/30 10:50:37;;;;;;;0.90;0.83;;;;;;;2.76;92.79;95812.09;5093750;28;20198;-70
2021/11/30 10:53:14;;;;;;;0.60;0.60;;;;;;;2.86;92.43;95805.91;5095404;28;20209;-70
2021/11/30 10:55:46;;;;;;;0.80;0.60;;;;;;;2.87;92.22;95804.94;5094111;28;20232;-70
2021/11/30 10:58:12;;;;;;;0.80;0.80;;;;;;;2.57;92.31;95799.13;5093744;28;20203;-70
2021/11/30 11:00:39;;;;;;;0.80;0.80;;;;;;;2.45;93.17;95789.84;5095689;28;20766;-70
2021/11/30 11:03:09;;;;;;;7.30;2.57;;;;;;;2.60;93.42;95789.25;5093962;28;20199;-70
2021/11/30 11:05:39;;;;;;;1.10;0.60;;;;;;;2.67;93.32;95777.34;5095091;28;20247;-70
2021/11/30 11:08:10;;;;;;;4.33;1.73;;;;;;;2.66;94.26;95806.91;5095540;28;20229;-70
2021/11/30 11:10:40;;;;;;;0.43;0.43;;;;;;;2.77;94.08;95785.94;5095324;28;20199;-70
2021/11/30 11:13:25;;;;;;;1.13;0.73;;;;;;;2.83;93.93;95787.97;5094298;28;20196;-70
2021/11/30 11:15:54;;;;;;;2.03;1.10;;;;;;;2.65;94.52;95781.88;5095206;28;20659;-70
2021/11/30 11:18:22;;;;;;;1.07;0.97;;;;;;;2.60;94.88;95762.44;5095450;28;20210;-70
2021/11/30 11:20:49;;;;;;;5.37;1.67;;;;;;;2.48;95.01;95769.59;5095400;28;20216;-70
2021/11/30 11:23:26;;;;;;;1.33;0.93;;;;;;;2.71;93.68;95742.28;5096296;28;20428;-70
2021/11/30 11:25:53;;;;;;;1.57;0.77;;;;;;;2.44;95.39;95757.84;5095164;28;20509;-70
2021/11/30 11:28:23;;;;;;;1.03;0.90;;;;;;;2.44;96.27;95773.44;5096395;28;20219;-70
2021/11/30 11:30:50;;;;;;;1.40;0.90;;;;;;;2.37;96.97;95745.53;5095983;28;20201;-70
2021/11/30 11:33:18;;;;;;;0.60;0.60;;;;;;;2.37;97.56;95748.13;5095939;28;20280;-70
2021/11/30 11:35:45;;;;;;;1.53;1.20;;;;;;;2.26;97.71;95776.06;5095453;28;20223;-69
2021/11/30 11:38:13;;;;;;;1.43;1.00;;;;;;;2.23;98.62;95740.75;5095938;28;20209;-70
2021/11/30 11:40:42;;;;;;;1.33;1.23;;;;;;;2.32;99.13;95742.53;5095895;28;20248;-70
2021/11/30 11:43:09;;;;;;;0.73;0.73;;;;;;;2.19;98.08;95735.97;5094888;28;20210;-70
2021/11/30 11:45:36;;;;;;;1.83;1.70;;;;;;;2.18;97.85;95744.75;5096201;28;20223;-70